Worland Municipal Airport Worland US
ICAO: KWRL
IATA: WRL
Category: Medium
Scheduled Services: Yes

Elevation: 4227 ft
TransAlt. 18000 ft.

Airport Communications:
ASOS:135.475
SALT LAKE CITY CNTR:133.25
CASPER RDO:122.4
CTAF/UNICOM:123.05

KWRL Zoom In..

If you have problems with the map follow the link
https://www.worldairports.se/pages/airport.php?
ICAO=KWRL

Runways:

(A) RW 04 length 2241 ft width 60 ft
---- / hdg 44

(B) RW 10 length 2501 ft width 60 ft
---- / hdg 106

(C) RW 16 length 7001 ft width 100 ft
---- / hdg 162

(D) RW 22 length 2241 ft width 60 ft
---- / hdg 224

(E) RW 28 length 2501 ft width 60 ft
---- / hdg 286

(F) RW 34 length 7001 ft width 100 ft
---- / hdg 342

Location; KWRL
Day. 11 / Time. 14.53 Zulu
* Altimeter: 29.98
* Temperature: -08° c. -17.6°f.
* Wind from: 190° Speed 04 kn.
Dewpoint: -10° c.
Visibility: 10 Statute Miles.
Clouds: Clear (automated report).

KWRL 111453Z AUTO 19004KT 10SM CLR M08/M10 A2998 RMK AO2 SLP212 T10831100 56013


Wind From 190°
Speed 04 kn.

 
 
jpsmedia worldairports.se 2019   terms of use